CheckWX is a tool to help pilots better visualize weather data.  It is not intended as a substitute for an official pre-flight weather briefing.

17:24:40 UTC

LFKC TAF
Calvi-Sainte-Catherine Airport
Calvi/Sainte-Catherine, France
TAF LFKC 181400Z 1815/1915 01012KT CAVOK TX30/1912Z TN15/1904Z BECMG 1819/1821 18004KT BECMG 1908/1910 27010KT

Jun-18@
15:00 UTC

Jun-18 @ 15:00 UTC

Jun-18@
19:00 UTC

Jun-18 @ 19:00 UTC

TAF LFKC 181400Z 1815/1915 01012KT CAVOK TX30/1912Z TN15/1904Z
Wind
  • 010° at 12 KTS
Cloud Levels
  • No significant clouds

Jun-18@
19:00 UTC

Jun-18 @ 19:00 UTC

Jun-19@
08:00 UTC

Jun-19 @ 08:00 UTC

BECMG 1819/1821 18004KT

Becoming

Becoming Conditions expected by Tue, Jun 18, 2019 @ 21:00 UTC

Wind
  • 180° at 4 KTS
Cloud Levels
  • No significant clouds

Jun-19@
08:00 UTC

Jun-19 @ 08:00 UTC

Jun-19@
15:00 UTC

Jun-19 @ 15:00 UTC

BECMG 1908/1910 27010KT

Becoming

Becoming Conditions expected by Wed, Jun 19, 2019 @ 10:00 UTC

Wind
  • 270° at 10 KTS
Cloud Levels
  • No significant clouds